Time;durP1;ratioP1;P1;durP2;ratioP2;P2;SDS_P1;SDS_P2;PMS_P1;PMS_P2;Temp;Humidity;BMP_temperature;BMP_pressure;BME280_temperature;BME280_humidity;BME280_pressure;Samples;Min_cycle;Max_cycle;Signal;HPM_P1;HPM_P2
2024/01/16 00:01:44;;;;;;;1.20;1.10;;;18.00;52.90;;;;;;5039991;28;20243;-70
2024/01/16 00:04:12;;;;;;;1.35;1.25;;;18.00;52.90;;;;;;5041282;28;20189;-69
2024/01/16 00:06:43;;;;;;;1.50;1.40;;;18.00;52.90;;;;;;5048515;28;20213;-70
2024/01/16 00:09:12;;;;;;;1.27;1.17;;;18.00;52.90;;;;;;5055313;28;20215;-70
2024/01/16 00:11:42;;;;;;;1.20;1.10;;;18.00;52.80;;;;;;5035684;28;20195;-69
2024/01/16 00:14:08;;;;;;;1.10;1.00;;;18.00;52.90;;;;;;5055690;28;20197;-69
2024/01/16 00:16:50;;;;;;;1.52;1.25;;;18.00;52.90;;;;;;5050594;28;20222;-70
2024/01/16 00:19:16;;;;;;;1.65;1.40;;;18.00;53.00;;;;;;5037821;28;20190;-70
2024/01/16 00:21:47;;;;;;;1.30;1.20;;;18.00;52.90;;;;;;5064697;28;20276;-70
2024/01/16 00:24:14;;;;;;;1.20;1.10;;;18.00;52.90;;;;;;5060252;28;20177;-70
2024/01/16 00:26:40;;;;;;;1.10;1.00;;;18.00;52.80;;;;;;5058696;28;20336;-70
2024/01/16 00:29:06;;;;;;;1.02;0.98;;;18.00;52.90;;;;;;5055283;28;20284;-70
2024/01/16 00:31:32;;;;;;;1.05;1.02;;;18.00;52.80;;;;;;5065521;28;20187;-70
2024/01/16 00:33:58;;;;;;;0.88;0.85;;;18.00;52.80;;;;;;5046440;28;20219;-70
2024/01/16 00:36:24;;;;;;;1.30;1.20;;;18.00;52.80;;;;;;5074501;28;20354;-70
2024/01/16 00:38:49;;;;;;;1.27;1.17;;;18.00;52.80;;;;;;5039696;28;20198;-70
2024/01/16 00:41:15;;;;;;;1.30;1.20;;;18.00;52.80;;;;;;5041809;28;20190;-69
2024/01/16 00:43:43;;;;;;;0.90;0.90;;;18.00;52.80;;;;;;5057557;28;20190;-70
2024/01/16 00:46:09;;;;;;;1.30;1.20;;;18.00;52.80;;;;;;5058484;28;20237;-70
2024/01/16 00:48:35;;;;;;;1.17;1.02;;;18.00;52.80;;;;;;5064214;28;20213;-70
2024/01/16 00:51:01;;;;;;;1.25;1.17;;;18.00;52.80;;;;;;5058127;28;20248;-70
2024/01/16 00:53:27;;;;;;;1.67;1.30;;;18.00;52.80;;;;;;5043360;28;20178;-70
2024/01/16 00:55:54;;;;;;;1.30;1.20;;;18.00;52.80;;;;;;5039562;28;20292;-70
2024/01/16 00:58:23;;;;;;;0.80;0.80;;;18.00;52.80;;;;;;5044301;28;20210;-69
2024/01/16 01:00:49;;;;;;;1.13;1.02;;;18.00;52.80;;;;;;5038947;28;20195;-70
2024/01/16 01:03:15;;;;;;;1.27;1.17;;;18.00;52.80;;;;;;5055447;28;20178;-69
2024/01/16 01:05:41;;;;;;;1.00;1.00;;;18.00;52.80;;;;;;5061665;28;20304;-69
2024/01/16 01:08:08;;;;;;;1.10;1.00;;;18.00;52.80;;;;;;5046254;28;20264;-70
2024/01/16 01:10:34;;;;;;;1.00;0.90;;;18.00;52.80;;;;;;5066441;28;20198;-69
2024/01/16 01:13:00;;;;;;;1.00;1.00;;;18.00;52.80;;;;;;5056164;28;20240;-69
2024/01/16 01:15:26;;;;;;;2.15;1.00;;;18.00;52.80;;;;;;5070981;28;20182;-69
2024/01/16 01:17:54;;;;;;;1.10;0.98;;;18.00;52.90;;;;;;5044521;28;20743;-70
2024/01/16 01:20:20;;;;;;;1.33;1.23;;;18.00;52.80;;;;;;5037887;28;20685;-70
2024/01/16 01:22:46;;;;;;;0.93;0.90;;;18.00;52.80;;;;;;5057069;28;20286;-69
2024/01/16 01:25:13;;;;;;;0.98;0.70;;;18.00;52.80;;;;;;5055546;28;20186;-70
2024/01/16 01:27:39;;;;;;;0.98;0.82;;;18.00;52.80;;;;;;5040810;28;20283;-70
2024/01/16 01:30:10;;;;;;;0.95;0.95;;;18.00;52.80;;;;;;5057296;28;20205;-70
2024/01/16 01:32:37;;;;;;;1.38;1.00;;;18.00;52.80;;;;;;5057492;28;20195;-70
2024/01/16 01:35:04;;;;;;;0.88;0.88;;;18.00;52.80;;;;;;5039254;28;20194;-70
2024/01/16 01:37:30;;;;;;;1.55;0.98;;;18.00;52.80;;;;;;5065106;28;20214;-70
2024/01/16 01:39:56;;;;;;;1.08;0.95;;;18.00;52.80;;;;;;5041564;28;20650;-70
2024/01/16 01:42:23;;;;;;;0.95;0.90;;;18.00;52.80;;;;;;5073441;28;20240;-70
2024/01/16 01:44:48;;;;;;;0.98;0.90;;;18.00;52.80;;;;;;5037520;28;20747;-70
2024/01/16 01:47:15;;;;;;;1.02;0.70;;;18.00;52.80;;;;;;5057416;28;20349;-69
2024/01/16 01:49:41;;;;;;;1.63;0.90;;;18.00;52.80;;;;;;5053591;28;20240;-70
2024/01/16 01:52:08;;;;;;;1.00;0.90;;;18.00;52.80;;;;;;5040960;28;20186;-70
2024/01/16 01:54:38;;;;;;;0.88;0.82;;;18.00;52.80;;;;;;5059569;28;20243;-70
2024/01/16 01:57:05;;;;;;;0.80;0.80;;;18.00;52.80;;;;;;5073869;28;20205;-70
2024/01/16 01:59:31;;;;;;;0.80;0.80;;;18.00;52.80;;;;;;5055329;28;20198;-70
2024/01/16 02:01:58;;;;;;;1.17;1.02;;;18.00;52.80;;;;;;5048326;28;20182;-70
2024/01/16 02:04:26;;;;;;;1.08;1.00;;;18.00;52.80;;;;;;5037075;28;20245;-69
2024/01/16 02:06:53;;;;;;;0.80;0.80;;;18.00;52.80;;;;;;5056110;28;20225;-70
2024/01/16 02:09:20;;;;;;;1.10;0.93;;;18.00;52.70;;;;;;5040729;28;20198;-70
2024/01/16 02:11:45;;;;;;;1.20;0.90;;;18.00;52.60;;;;;;5058064;28;20678;-70
2024/01/16 02:14:11;;;;;;;0.70;0.70;;;18.00;52.70;;;;;;5041950;28;20192;-70
2024/01/16 02:16:44;;;;;;;0.80;0.80;;;18.00;52.60;;;;;;5063327;28;20226;-70
2024/01/16 02:19:10;;;;;;;0.85;0.85;;;18.00;52.60;;;;;;5061271;28;20189;-69
2024/01/16 02:21:49;;;;;;;0.70;0.70;;;18.00;52.70;;;;;;5074653;28;20195;-70
2024/01/16 02:24:17;;;;;;;0.90;0.90;;;18.00;52.70;;;;;;5057210;28;20269;-70
2024/01/16 02:26:43;;;;;;;0.93;0.90;;;18.00;53.30;;;;;;5043463;28;20213;-69
2024/01/16 02:29:09;;;;;;;0.98;0.77;;;18.00;52.70;;;;;;5041470;28;20558;-70
2024/01/16 02:31:35;;;;;;;0.80;0.80;;;18.00;52.70;;;;;;5052918;28;20241;-70
2024/01/16 02:34:03;;;;;;;1.02;0.80;;;18.00;52.70;;;;;;5055512;28;20183;-69
2024/01/16 02:36:30;;;;;;;1.00;0.90;;;18.00;52.60;;;;;;5038318;28;20217;-70
2024/01/16 02:38:56;;;;;;;1.20;1.13;;;18.00;52.60;;;;;;5040699;28;20281;-70
2024/01/16 02:41:22;;;;;;;1.50;1.00;;;18.00;53.30;;;;;;5039545;28;20237;-69
2024/01/16 02:43:48;;;;;;;1.00;1.00;;;18.00;52.60;;;;;;5036185;28;20202;-70
2024/01/16 02:46:15;;;;;;;0.80;0.80;;;18.00;52.60;;;;;;5040405;28;20202;-69
2024/01/16 02:48:42;;;;;;;0.80;0.80;;;18.00;52.60;;;;;;5038656;28;20209;-70
2024/01/16 02:51:08;;;;;;;0.82;0.82;;;18.00;52.60;;;;;;5056554;28;20239;-69
2024/01/16 02:53:34;;;;;;;0.80;0.80;;;18.00;52.60;;;;;;5034114;28;20187;-70
2024/01/16 02:56:01;;;;;;;0.70;0.70;;;18.00;52.50;;;;;;5055624;28;20206;-70
2024/01/16 02:58:28;;;;;;;0.75;0.70;;;18.00;52.50;;;;;;5055391;28;20206;-70
2024/01/16 03:00:55;;;;;;;0.95;0.93;;;18.00;52.60;;;;;;5056056;28;20191;-70
2024/01/16 03:03:21;;;;;;;1.00;0.80;;;17.90;53.00;;;;;;5039171;28;20179;-69
2024/01/16 03:05:47;;;;;;;0.70;0.70;;;18.00;52.50;;;;;;5051495;28;20221;-70
2024/01/16 03:08:13;;;;;;;0.80;0.80;;;18.00;52.60;;;;;;5045098;28;20269;-70
2024/01/16 03:10:39;;;;;;;0.57;0.57;;;18.00;52.50;;;;;;5049632;28;20213;-69
2024/01/16 03:13:05;;;;;;;1.08;0.95;;;18.00;52.60;;;;;;5069575;28;20254;-69
2024/01/16 03:15:31;;;;;;;1.25;0.98;;;18.00;52.60;;;;;;5054402;28;20263;-69
2024/01/16 03:17:58;;;;;;;1.65;0.90;;;18.00;52.50;;;;;;5061878;28;20212;-70
2024/01/16 03:20:24;;;;;;;0.80;0.80;;;17.90;52.50;;;;;;5037890;28;20182;-69
2024/01/16 03:22:50;;;;;;;0.90;0.90;;;18.00;52.50;;;;;;5063915;28;20182;-69
2024/01/16 03:25:17;;;;;;;1.02;0.95;;;18.00;52.50;;;;;;5056444;28;20562;-70
2024/01/16 03:27:44;;;;;;;0.70;0.70;;;17.90;52.40;;;;;;5044596;28;20194;-69
2024/01/16 03:30:10;;;;;;;0.70;0.70;;;17.90;52.40;;;;;;5062103;28;20196;-69
2024/01/16 03:32:37;;;;;;;1.05;0.95;;;17.90;52.40;;;;;;5046504;28;20189;-70
2024/01/16 03:35:07;;;;;;;0.70;0.70;;;17.90;52.40;;;;;;5058257;28;20217;-69
2024/01/16 03:37:34;;;;;;;0.80;0.80;;;17.90;52.40;;;;;;5079494;28;20292;-69
2024/01/16 03:40:00;;;;;;;1.13;0.80;;;18.00;52.40;;;;;;5045157;28;20189;-69
2024/01/16 03:42:26;;;;;;;1.00;0.90;;;18.00;52.40;;;;;;5062653;28;20572;-70
2024/01/16 03:44:52;;;;;;;0.98;0.80;;;17.90;52.40;;;;;;5047389;28;20181;-70
2024/01/16 03:47:19;;;;;;;0.90;0.90;;;17.90;52.30;;;;;;5039567;28;20255;-69
2024/01/16 03:49:45;;;;;;;0.93;0.85;;;17.90;52.30;;;;;;5057503;28;20275;-69
2024/01/16 03:52:12;;;;;;;1.48;0.88;;;17.90;52.20;;;;;;5060979;28;20197;-69
2024/01/16 03:54:37;;;;;;;0.80;0.73;;;17.90;52.30;;;;;;5057574;28;20187;-70
2024/01/16 03:57:03;;;;;;;0.82;0.65;;;17.90;52.40;;;;;;5062647;28;20218;-69
2024/01/16 03:59:29;;;;;;;1.05;0.70;;;17.90;52.30;;;;;;5065477;28;20186;-70
2024/01/16 04:01:55;;;;;;;1.40;0.90;;;17.90;52.20;;;;;;5037509;28;20190;-70
2024/01/16 04:04:22;;;;;;;0.93;0.93;;;17.90;52.20;;;;;;5048799;28;20186;-70
2024/01/16 04:06:48;;;;;;;0.90;0.90;;;17.90;52.20;;;;;;5050545;28;20268;-69
2024/01/16 04:09:14;;;;;;;0.73;0.70;;;17.90;52.30;;;;;;5053014;28;20207;-70
2024/01/16 04:11:40;;;;;;;1.65;0.93;;;17.90;52.20;;;;;;5046554;28;20191;-70
2024/01/16 04:14:06;;;;;;;0.70;0.70;;;17.90;52.20;;;;;;5041981;28;20214;-70
2024/01/16 04:16:32;;;;;;;0.70;0.70;;;17.90;52.20;;;;;;5034690;28;20218;-70
2024/01/16 04:18:58;;;;;;;0.90;0.70;;;17.90;52.20;;;;;;5072978;28;20209;-70
2024/01/16 04:21:23;;;;;;;1.17;1.08;;;17.80;52.10;;;;;;5034148;28;20682;-70
2024/01/16 04:23:49;;;;;;;1.10;1.00;;;17.90;52.20;;;;;;5050409;28;20186;-69
2024/01/16 04:26:15;;;;;;;1.00;1.00;;;17.90;52.20;;;;;;5051674;28;20210;-69
2024/01/16 04:28:42;;;;;;;1.20;1.10;;;17.90;52.20;;;;;;5067050;28;20225;-69
2024/01/16 04:31:08;;;;;;;1.33;1.23;;;17.80;52.00;;;;;;5042794;28;20258;-69
2024/01/16 04:33:34;;;;;;;1.23;1.13;;;17.90;52.20;;;;;;5034030;28;20269;-69
2024/01/16 04:35:59;;;;;;;1.05;0.90;;;17.80;52.00;;;;;;5048230;28;20286;-69
2024/01/16 04:38:25;;;;;;;0.93;0.90;;;17.90;52.10;;;;;;5057349;28;20201;-69
2024/01/16 04:40:51;;;;;;;1.08;1.00;;;17.90;52.10;;;;;;5056009;28;20182;-69
2024/01/16 04:43:17;;;;;;;1.00;0.95;;;17.90;52.00;;;;;;5037090;28;20598;-69
2024/01/16 04:45:42;;;;;;;1.17;1.08;;;17.90;52.00;;;;;;5033956;28;20755;-69
2024/01/16 04:48:08;;;;;;;1.17;1.08;;;17.90;52.00;;;;;;5050411;28;20604;-69
2024/01/16 04:50:35;;;;;;;1.23;0.98;;;17.90;52.00;;;;;;5050263;28;20240;-69
2024/01/16 04:53:02;;;;;;;2.08;1.20;;;17.90;52.00;;;;;;5053728;28;20193;-69
2024/01/16 04:55:29;;;;;;;1.15;1.00;;;17.80;51.90;;;;;;5033593;28;20186;-69
2024/01/16 04:57:56;;;;;;;1.30;1.20;;;17.90;52.00;;;;;;5058610;28;20238;-69
2024/01/16 05:00:22;;;;;;;1.15;1.05;;;17.90;52.00;;;;;;5050309;28;20236;-68
2024/01/16 05:02:48;;;;;;;1.10;1.00;;;17.90;52.00;;;;;;5058170;28;20189;-68
2024/01/16 05:05:14;;;;;;;1.30;1.20;;;17.80;51.90;;;;;;5049958;28;20226;-69
2024/01/16 05:07:41;;;;;;;1.60;1.50;;;17.80;51.90;;;;;;5061226;28;20193;-68
2024/01/16 05:10:10;;;;;;;1.70;1.60;;;17.80;51.90;;;;;;5086354;28;20201;-68
2024/01/16 05:12:36;;;;;;;2.75;2.55;;;17.90;52.00;;;;;;5069668;28;20217;-69
2024/01/16 05:15:02;;;;;;;2.65;2.42;;;17.80;51.90;;;;;;5069118;28;20192;-70
2024/01/16 05:17:29;;;;;;;3.25;2.83;;;17.80;51.80;;;;;;5063165;28;20311;-69
2024/01/16 05:19:55;;;;;;;3.35;3.05;;;17.80;51.80;;;;;;5049611;28;20189;-69
2024/01/16 05:22:21;;;;;;;3.25;2.85;;;17.80;51.80;;;;;;5068961;28;20194;-70
2024/01/16 05:24:47;;;;;;;3.22;2.92;;;17.80;51.80;;;;;;5069204;28;20188;-69
2024/01/16 05:27:14;;;;;;;2.92;2.63;;;17.80;51.80;;;;;;5051836;28;20214;-69
2024/01/16 05:29:41;;;;;;;3.03;2.72;;;17.80;51.80;;;;;;5056579;28;20241;-70
2024/01/16 05:32:07;;;;;;;3.08;2.78;;;17.80;51.80;;;;;;5039715;28;20234;-69
2024/01/16 05:34:32;;;;;;;3.63;3.30;;;17.80;51.80;;;;;;5074272;28;20221;-69
2024/01/16 05:36:58;;;;;;;3.08;2.70;;;17.80;51.80;;;;;;5048102;28;20217;-69
2024/01/16 05:39:24;;;;;;;3.30;2.90;;;17.80;51.70;;;;;;5069108;28;20198;-69
2024/01/16 05:41:50;;;;;;;3.10;2.80;;;17.80;51.60;;;;;;5069196;28;20177;-69
2024/01/16 05:44:16;;;;;;;2.60;2.38;;;17.80;51.70;;;;;;5039111;28;20190;-69
2024/01/16 05:46:42;;;;;;;4.32;3.40;;;17.80;51.70;;;;;;5049108;28;20205;-69
2024/01/16 05:49:08;;;;;;;3.55;3.17;;;17.80;51.60;;;;;;5063255;28;20181;-69
2024/01/16 05:51:34;;;;;;;4.05;3.25;;;17.80;51.50;;;;;;5042901;28;20190;-70
2024/01/16 05:54:00;;;;;;;3.25;2.95;;;17.80;51.50;;;;;;5039229;28;20241;-71
2024/01/16 05:56:25;;;;;;;3.72;3.25;;;17.80;51.60;;;;;;5043579;28;20245;-71
2024/01/16 05:58:52;;;;;;;3.47;3.17;;;17.70;51.50;;;;;;5057292;28;20191;-71
2024/01/16 06:01:17;;;;;;;3.35;3.05;;;17.70;51.50;;;;;;5041561;28;20190;-71
2024/01/16 06:03:46;;;;;;;4.20;3.00;;;17.80;51.60;;;;;;5043812;28;20189;-71
2024/01/16 06:06:12;;;;;;;3.72;3.00;;;17.80;51.60;;;;;;5044416;28;20205;-71
2024/01/16 06:08:37;;;;;;;3.60;3.30;;;17.80;51.50;;;;;;5041809;28;20654;-71
2024/01/16 06:11:03;;;;;;;3.67;3.30;;;17.70;51.50;;;;;;5052784;28;20194;-71
2024/01/16 06:13:31;;;;;;;3.85;3.35;;;17.70;51.60;;;;;;5052571;28;20263;-71
2024/01/16 06:15:57;;;;;;;3.78;3.10;;;17.70;51.50;;;;;;5060738;28;20233;-72
2024/01/16 06:18:23;;;;;;;4.20;3.80;;;17.70;51.40;;;;;;5044085;28;20218;-71
2024/01/16 06:20:49;;;;;;;3.53;3.22;;;17.70;51.40;;;;;;5053596;28;20283;-71
2024/01/16 06:23:15;;;;;;;3.55;3.25;;;17.70;51.40;;;;;;5051952;28;20232;-72
2024/01/16 06:25:41;;;;;;;3.92;3.53;;;17.70;51.40;;;;;;5042096;28;20198;-71
2024/01/16 06:28:07;;;;;;;4.15;3.60;;;17.70;51.40;;;;;;5060611;28;20203;-71
2024/01/16 06:30:33;;;;;;;4.00;3.60;;;17.70;51.30;;;;;;5052007;28;20252;-71
2024/01/16 06:32:59;;;;;;;4.05;3.50;;;17.70;51.30;;;;;;5053948;28;20193;-71
2024/01/16 06:35:25;;;;;;;3.72;3.20;;;17.70;51.20;;;;;;5070126;28;20186;-71
2024/01/16 06:37:51;;;;;;;4.47;3.67;;;17.70;51.20;;;;;;5071399;28;20292;-71
2024/01/16 06:40:17;;;;;;;4.35;3.83;;;17.70;51.10;;;;;;5054155;28;20232;-71
2024/01/16 06:42:42;;;;;;;3.67;3.38;;;17.70;51.20;;;;;;5053647;28;20221;-71
2024/01/16 06:45:08;;;;;;;3.40;3.10;;;17.70;51.20;;;;;;5067777;28;20218;-72
2024/01/16 06:47:34;;;;;;;4.57;3.60;;;17.80;51.30;;;;;;5070044;28;20188;-72
2024/01/16 06:50:00;;;;;;;3.50;3.20;;;17.80;51.20;;;;;;5069565;28;20189;-71
2024/01/16 06:52:26;;;;;;;4.35;3.55;;;17.70;51.10;;;;;;5068477;28;20186;-71
2024/01/16 06:54:52;;;;;;;3.90;3.47;;;17.80;51.20;;;;;;5052511;28;20181;-71
2024/01/16 06:57:17;;;;;;;4.03;3.50;;;17.70;51.10;;;;;;5043819;28;20746;-71
2024/01/16 06:59:43;;;;;;;4.07;3.67;;;17.80;51.20;;;;;;5050355;28;20190;-71
2024/01/16 07:02:09;;;;;;;4.05;3.65;;;17.80;51.10;;;;;;5051944;28;20186;-70
2024/01/16 07:04:35;;;;;;;4.03;3.47;;;17.80;51.20;;;;;;5058288;28;20297;-71
2024/01/16 07:07:01;;;;;;;4.20;3.40;;;17.70;51.00;;;;;;5034060;28;20210;-70
2024/01/16 07:09:27;;;;;;;3.90;3.40;;;17.70;51.10;;;;;;5037517;28;20579;-71
2024/01/16 07:11:53;;;;;;;4.30;3.20;;;17.70;51.20;;;;;;5039629;28;20197;-72
2024/01/16 07:14:19;;;;;;;3.58;3.28;;;17.70;51.00;;;;;;5077664;28;20185;-71
2024/01/16 07:16:46;;;;;;;3.72;3.33;;;17.70;51.10;;;;;;5058026;28;20245;-71
2024/01/16 07:19:12;;;;;;;4.40;3.78;;;17.80;51.20;;;;;;5074770;28;20186;-71
2024/01/16 07:21:38;;;;;;;3.60;3.30;;;17.70;51.10;;;;;;5068300;28;20189;-71
2024/01/16 07:24:04;;;;;;;3.85;3.45;;;17.70;51.10;;;;;;5084178;28;20185;-71
2024/01/16 07:26:30;;;;;;;3.90;3.42;;;17.70;51.00;;;;;;5044417;28;20213;-71
2024/01/16 07:28:56;;;;;;;5.10;4.60;;;17.70;51.00;;;;;;5074030;28;20178;-71
2024/01/16 07:31:23;;;;;;;4.28;3.88;;;17.70;51.10;;;;;;5065644;28;20186;-71
2024/01/16 07:33:49;;;;;;;4.82;4.32;;;17.70;51.00;;;;;;5050731;28;20207;-71
2024/01/16 07:36:14;;;;;;;4.88;4.05;;;17.70;51.00;;;;;;5066733;28;20205;-71
2024/01/16 07:38:40;;;;;;;5.55;4.72;;;17.80;51.10;;;;;;5050611;28;20219;-71
2024/01/16 07:41:06;;;;;;;4.65;3.72;;;17.70;51.00;;;;;;5049705;28;20197;-71
2024/01/16 07:43:33;;;;;;;5.03;4.40;;;17.70;50.90;;;;;;5066081;28;20673;-71
2024/01/16 07:45:59;;;;;;;5.88;4.65;;;17.70;50.90;;;;;;5050475;28;20213;-71
2024/01/16 07:48:25;;;;;;;6.55;4.97;;;17.70;51.00;;;;;;5064704;28;20187;-71
2024/01/16 07:50:51;;;;;;;5.90;4.80;;;17.70;51.00;;;;;;5083753;28;20197;-71
2024/01/16 07:53:17;;;;;;;6.32;4.82;;;17.70;50.90;;;;;;5047954;28;20359;-71
2024/01/16 07:55:43;;;;;;;5.35;4.40;;;17.70;51.00;;;;;;5049463;28;20323;-71
2024/01/16 07:58:13;;;;;;;4.90;4.40;;;17.70;50.90;;;;;;5047813;28;20723;-71
2024/01/16 08:00:39;;;;;;;5.03;4.28;;;17.70;50.90;;;;;;5048955;28;20210;-71
2024/01/16 08:03:14;;;;;;;5.43;4.40;;;17.70;51.00;;;;;;5065525;28;20224;-71
2024/01/16 08:05:40;;;;;;;4.97;4.18;;;17.70;51.00;;;;;;5066034;28;20227;-71
2024/01/16 08:08:10;;;;;;;5.50;4.53;;;17.70;51.00;;;;;;5043378;28;20213;-71
2024/01/16 08:10:36;;;;;;;5.60;4.35;;;17.70;50.90;;;;;;5044674;28;20190;-71
2024/01/16 08:13:03;;;;;;;4.50;4.03;;;17.70;51.00;;;;;;5039306;28;20228;-71
2024/01/16 08:15:29;;;;;;;6.10;4.75;;;17.70;51.00;;;;;;5040204;28;20201;-71
2024/01/16 08:17:55;;;;;;;6.70;4.80;;;17.70;50.80;;;;;;5065462;28;20217;-71
2024/01/16 08:20:21;;;;;;;5.22;4.13;;;17.70;50.90;;;;;;5051138;28;20210;-71
2024/01/16 08:22:46;;;;;;;5.40;4.45;;;17.70;50.80;;;;;;5048850;28;20653;-71
2024/01/16 08:25:12;;;;;;;4.85;3.90;;;17.70;50.80;;;;;;5076496;28;20273;-71
2024/01/16 08:27:38;;;;;;;4.63;4.13;;;17.70;50.80;;;;;;5057941;28;20224;-71
2024/01/16 08:30:08;;;;;;;5.72;4.68;;;17.70;50.80;;;;;;5049150;28;20185;-72
2024/01/16 08:32:34;;;;;;;5.70;4.57;;;17.70;50.80;;;;;;5063941;28;20190;-71
2024/01/16 08:35:00;;;;;;;5.85;4.55;;;17.70;50.80;;;;;;5066519;28;20198;-71
2024/01/16 08:37:25;;;;;;;6.40;4.90;;;17.70;50.80;;;;;;5054092;28;20219;-72
2024/01/16 08:39:52;;;;;;;5.22;4.72;;;17.70;50.80;;;;;;5050694;28;20221;-71
2024/01/16 08:42:18;;;;;;;5.88;4.47;;;17.70;50.80;;;;;;5047921;28;20194;-71
2024/01/16 08:44:44;;;;;;;5.95;4.63;;;17.70;50.80;;;;;;5047757;28;20190;-72
2024/01/16 08:47:10;;;;;;;5.35;4.65;;;17.70;50.80;;;;;;5058485;28;20220;-71
2024/01/16 08:49:38;;;;;;;5.15;4.65;;;17.70;50.80;;;;;;5055280;28;20182;-71
2024/01/16 08:52:05;;;;;;;6.60;4.90;;;17.70;50.80;;;;;;5060177;28;20255;-71
2024/01/16 08:54:31;;;;;;;5.18;4.13;;;17.70;50.90;;;;;;5043780;28;20228;-71
2024/01/16 08:56:56;;;;;;;5.55;4.65;;;17.70;50.80;;;;;;5047329;28;20221;-72
2024/01/16 08:59:25;;;;;;;5.55;4.60;;;17.70;50.70;;;;;;5057517;28;20182;-72
2024/01/16 09:01:51;;;;;;;5.20;4.40;;;17.70;50.80;;;;;;5080544;28;20196;-72
2024/01/16 09:04:17;;;;;;;6.22;4.57;;;17.70;50.80;;;;;;5056772;28;20189;-72
2024/01/16 09:06:43;;;;;;;5.60;4.85;;;17.80;50.80;;;;;;5052699;28;20216;-72
2024/01/16 09:09:09;;;;;;;5.60;4.07;;;17.70;50.70;;;;;;5063068;28;20190;-72
2024/01/16 09:11:35;;;;;;;4.85;4.35;;;17.70;50.70;;;;;;5065027;28;20212;-72
2024/01/16 09:14:01;;;;;;;4.88;4.32;;;17.80;50.70;;;;;;5045574;28;20190;-71
2024/01/16 09:16:29;;;;;;;5.22;4.40;;;17.70;50.60;;;;;;5057970;28;20229;-72
2024/01/16 09:18:56;;;;;;;4.90;4.40;;;17.80;50.70;;;;;;5047055;28;20197;-72
2024/01/16 09:21:23;;;;;;;5.35;4.00;;;17.80;50.70;;;;;;5043018;28;20259;-72
2024/01/16 09:23:49;;;;;;;5.05;4.53;;;17.80;50.70;;;;;;5049410;28;20260;-72
2024/01/16 09:26:15;;;;;;;5.72;4.85;;;17.80;50.60;;;;;;5043763;28;20292;-71
2024/01/16 09:28:41;;;;;;;4.68;4.18;;;17.80;50.60;;;;;;5049209;28;20186;-72
2024/01/16 09:31:07;;;;;;;5.28;4.32;;;17.80;50.70;;;;;;5037194;28;20249;-72
2024/01/16 09:33:35;;;;;;;5.22;4.22;;;17.80;50.60;;;;;;5057563;28;20202;-72
2024/01/16 09:36:02;;;;;;;4.63;4.13;;;17.80;50.60;;;;;;5079087;28;20205;-71
2024/01/16 09:38:31;;;;;;;5.18;4.47;;;17.80;50.70;;;;;;5072891;28;20207;-72
2024/01/16 09:40:59;;;;;;;6.35;4.97;;;17.80;50.60;;;;;;5040877;28;20668;-72
2024/01/16 09:43:29;;;;;;;4.65;4.13;;;17.80;50.60;;;;;;5038574;28;20183;-72
2024/01/16 09:46:01;;;;;;;4.95;4.35;;;17.90;50.70;;;;;;5053905;28;20198;-71
2024/01/16 09:48:31;;;;;;;4.65;4.18;;;17.90;50.60;;;;;;5039586;28;20194;-72
2024/01/16 09:50:58;;;;;;;5.90;4.95;;;17.90;50.70;;;;;;5065512;28;20197;-71
2024/01/16 09:53:25;;;;;;;4.80;4.30;;;17.90;50.70;;;;;;5041435;28;20190;-72
2024/01/16 09:55:59;;;;;;;5.15;4.05;;;17.90;50.60;;;;;;5045027;28;20236;-71
2024/01/16 09:58:28;;;;;;;6.40;4.63;;;17.90;50.60;;;;;;5048435;28;20252;-71
2024/01/16 10:00:55;;;;;;;5.55;4.25;;;17.90;50.60;;;;;;5050264;28;20174;-72
2024/01/16 10:03:22;;;;;;;5.35;4.55;;;17.90;50.70;;;;;;5057900;28;20179;-71
2024/01/16 10:05:49;;;;;;;4.40;3.92;;;17.90;50.70;;;;;;5033477;28;20257;-71
2024/01/16 10:08:14;;;;;;;4.50;4.07;;;17.90;50.70;;;;;;5057902;28;20201;-72
2024/01/16 10:10:40;;;;;;;4.40;4.00;;;17.90;50.70;;;;;;5041263;28;20183;-71
2024/01/16 10:13:07;;;;;;;5.18;4.32;;;17.90;50.60;;;;;;5057511;28;20201;-71
2024/01/16 10:15:35;;;;;;;4.63;4.15;;;17.90;50.60;;;;;;5045490;28;20222;-72
2024/01/16 10:18:01;;;;;;;4.70;4.20;;;17.90;50.70;;;;;;5052425;28;20214;-71
2024/01/16 10:20:35;;;;;;;4.43;4.03;;;17.90;50.70;;;;;;5039133;28;20586;-72
2024/01/16 10:23:03;;;;;;;4.90;4.40;;;17.90;50.60;;;;;;5057521;28;20182;-71
2024/01/16 10:25:29;;;;;;;5.47;4.30;;;17.90;50.60;;;;;;5059563;28;20183;-72
2024/01/16 10:28:07;;;;;;;4.40;4.03;;;18.00;50.80;;;;;;5064418;28;20645;-72
2024/01/16 10:30:33;;;;;;;4.40;4.00;;;17.90;50.70;;;;;;5058978;28;20194;-72
2024/01/16 10:33:16;;;;;;;4.85;4.38;;;17.90;50.70;;;;;;5047239;28;20189;-71
2024/01/16 10:35:42;;;;;;;4.18;3.78;;;17.90;50.70;;;;;;5058142;28;20207;-72
2024/01/16 10:38:08;;;;;;;4.82;4.30;;;17.90;50.70;;;;;;5079272;28;20216;-72
2024/01/16 10:40:34;;;;;;;4.35;3.95;;;17.90;50.80;;;;;;5064721;28;20608;-72
2024/01/16 10:43:03;;;;;;;4.93;4.30;;;17.90;50.70;;;;;;5046645;28;20196;-71
2024/01/16 10:45:29;;;;;;;4.90;4.40;;;18.00;51.40;;;;;;5039971;28;20179;-72
2024/01/16 10:48:15;;;;;;;5.32;3.85;;;17.90;50.60;;;;;;5079500;28;20239;-72
2024/01/16 10:50:43;;;;;;;4.30;3.90;;;17.90;50.70;;;;;;5045953;28;20198;-72
2024/01/16 10:53:14;;;;;;;4.55;3.92;;;17.90;50.70;;;;;;5044878;28;20185;-72
2024/01/16 10:55:51;;;;;;;4.55;3.97;;;18.00;50.80;;;;;;5055812;28;20213;-72
2024/01/16 10:58:25;;;;;;;4.53;4.10;;;18.00;50.70;;;;;;5043322;28;20240;-72
2024/01/16 11:00:54;;;;;;;4.10;3.70;;;18.00;50.80;;;;;;5077225;28;20241;-72
2024/01/16 11:03:35;;;;;;;3.90;3.60;;;18.00;50.70;;;;;;5054405;28;20192;-71
2024/01/16 11:06:03;;;;;;;3.97;3.45;;;18.00;50.80;;;;;;5060684;28;20224;-73
2024/01/16 11:08:33;;;;;;;4.18;3.78;;;18.00;50.80;;;;;;5044717;28;20208;-71
2024/01/16 11:11:01;;;;;;;4.95;3.70;;;18.00;50.80;;;;;;5059999;28;20186;-72
2024/01/16 11:13:27;;;;;;;4.07;3.67;;;18.00;50.70;;;;;;5051250;28;20256;-72
2024/01/16 11:15:54;;;;;;;4.55;3.75;;;18.10;50.80;;;;;;5046683;28;20213;-73
2024/01/16 11:18:20;;;;;;;3.53;3.22;;;18.00;50.70;;;;;;5051709;28;20218;-72
2024/01/16 11:20:46;;;;;;;3.97;3.50;;;18.00;50.70;;;;;;5047620;28;20199;-73
2024/01/16 11:23:13;;;;;;;4.00;3.60;;;18.10;50.70;;;;;;5059791;28;20185;-72
2024/01/16 11:25:39;;;;;;;3.92;3.42;;;18.10;50.70;;;;;;5048922;28;20206;-72
2024/01/16 11:28:31;;;;;;;3.65;3.35;;;18.00;50.60;;;;;;5041105;28;20197;-72
2024/01/16 11:30:57;;;;;;;4.35;3.72;;;18.10;50.80;;;;;;5062543;28;20193;-72
2024/01/16 11:33:32;;;;;;;3.45;3.10;;;18.00;50.70;;;;;;5058886;28;20208;-72
2024/01/16 11:35:58;;;;;;;3.58;3.28;;;18.10;50.80;;;;;;5045753;28;20794;-72
2024/01/16 11:38:29;;;;;;;3.25;2.95;;;18.10;50.80;;;;;;5044569;28;20630;-72
2024/01/16 11:40:58;;;;;;;3.30;2.90;;;18.10;50.80;;;;;;5073236;28;20191;-72
2024/01/16 11:43:32;;;;;;;3.60;3.17;;;18.00;50.80;;;;;;5056787;28;20175;-72
2024/01/16 11:46:00;;;;;;;3.33;3.03;;;18.00;50.80;;;;;;5044408;28;20327;-72
2024/01/16 11:48:25;;;;;;;3.88;2.85;;;18.00;50.80;;;;;;5053687;28;20187;-72
2024/01/16 11:50:53;;;;;;;3.38;3.05;;;18.00;50.80;;;;;;5059941;28;20198;-72
2024/01/16 11:53:36;;;;;;;3.40;3.10;;;18.00;50.80;;;;;;5057444;28;20181;-72
2024/01/16 11:56:47;;;;;;;3.20;2.90;;;18.10;50.80;;;;;;5060322;28;20296;-72
2024/01/16 11:59:38;;;;;;;3.03;2.53;;;18.10;50.90;;;;;;5054245;28;20190;-72
2024/01/16 12:02:16;;;;;;;3.65;3.10;;;18.00;50.80;;;;;;5025354;28;20199;-72
2024/01/16 12:04:42;;;;;;;2.80;2.30;;;18.10;51.00;;;;;;5030582;28;20187;-72
2024/01/16 12:07:08;;;;;;;2.80;2.60;;;18.10;50.90;;;;;;5038321;28;20261;-73
2024/01/16 12:09:34;;;;;;;2.47;2.28;;;18.10;50.90;;;;;;5040592;28;20206;-72
2024/01/16 12:12:02;;;;;;;2.85;2.58;;;18.10;50.80;;;;;;5038065;28;20274;-73
2024/01/16 12:14:29;;;;;;;2.88;2.40;;;18.10;50.90;;;;;;5031871;28;20197;-73
2024/01/16 12:17:12;;;;;;;2.38;2.17;;;18.10;50.90;;;;;;5041369;28;20252;-73
2024/01/16 12:19:42;;;;;;;2.75;2.47;;;18.10;50.90;;;;;;5038364;28;20681;-72
2024/01/16 12:22:13;;;;;;;3.13;2.80;;;18.00;50.90;;;;;;5063671;28;20657;-73
2024/01/16 12:24:39;;;;;;;3.28;2.83;;;18.00;50.90;;;;;;5049792;28;20321;-73
2024/01/16 12:27:06;;;;;;;4.22;3.20;;;18.10;51.00;;;;;;5054228;28;20273;-72
2024/01/16 12:29:32;;;;;;;4.63;3.30;;;18.00;50.90;;;;;;5067129;28;20178;-72
2024/01/16 12:32:18;;;;;;;5.18;3.67;;;18.00;50.90;;;;;;5053130;28;20201;-72
2024/01/16 12:34:50;;;;;;;5.65;4.30;;;18.10;51.00;;;;;;5052440;28;20194;-73
2024/01/16 12:37:16;;;;;;;4.68;3.92;;;18.00;50.90;;;;;;5039240;28;20242;-72
2024/01/16 12:39:43;;;;;;;5.63;4.50;;;18.10;51.00;;;;;;5054786;28;20181;-72
2024/01/16 12:42:11;;;;;;;7.88;5.53;;;18.00;51.00;;;;;;5030132;28;20190;-73
2024/01/16 12:44:37;;;;;;;8.05;5.57;;;18.10;51.00;;;;;;5040266;28;20206;-72
2024/01/16 12:47:03;;;;;;;7.65;5.97;;;18.10;51.10;;;;;;5050172;28;20211;-72
2024/01/16 12:49:30;;;;;;;9.40;6.30;;;18.00;50.90;;;;;;5042121;28;20190;-72